sensor_id;sensor_type;location;lat;lon;timestamp;temperature;humidity
8595;DHT22;4335;48.860;9.198;2023-02-13T00:01:05;2.80;99.90
8595;DHT22;4335;48.860;9.198;2023-02-13T00:03:32;2.80;99.90
8595;DHT22;4335;48.860;9.198;2023-02-13T00:06:05;2.80;99.90
8595;DHT22;4335;48.860;9.198;2023-02-13T00:08:32;2.70;99.90
8595;DHT22;4335;48.860;9.198;2023-02-13T00:10:59;2.70;99.90
8595;DHT22;4335;48.860;9.198;2023-02-13T00:13:26;2.70;99.90
8595;DHT22;4335;48.860;9.198;2023-02-13T00:16:00;2.70;99.90
8595;DHT22;4335;48.860;9.198;2023-02-13T00:18:28;2.70;99.90
8595;DHT22;4335;48.860;9.198;2023-02-13T00:20:59;2.70;99.90
8595;DHT22;4335;48.860;9.198;2023-02-13T00:23:31;2.70;99.90
8595;DHT22;4335;48.860;9.198;2023-02-13T00:26:04;2.70;99.90
8595;DHT22;4335;48.860;9.198;2023-02-13T00:28:32;2.70;99.90
8595;DHT22;4335;48.860;9.198;2023-02-13T00:31:03;2.70;99.90
8595;DHT22;4335;48.860;9.198;2023-02-13T00:33:30;2.70;99.90
8595;DHT22;4335;48.860;9.198;2023-02-13T00:36:05;2.70;99.90
8595;DHT22;4335;48.860;9.198;2023-02-13T00:38:32;2.70;99.90
8595;DHT22;4335;48.860;9.198;2023-02-13T00:40:58;2.70;99.90
8595;DHT22;4335;48.860;9.198;2023-02-13T00:43:28;2.70;99.90
8595;DHT22;4335;48.860;9.198;2023-02-13T00:45:56;2.70;99.90
8595;DHT22;4335;48.860;9.198;2023-02-13T00:48:24;2.70;99.90
8595;DHT22;4335;48.860;9.198;2023-02-13T00:50:50;2.70;99.90
8595;DHT22;4335;48.860;9.198;2023-02-13T00:53:17;2.70;99.90
8595;DHT22;4335;48.860;9.198;2023-02-13T00:55:44;2.70;99.90
8595;DHT22;4335;48.860;9.198;2023-02-13T00:58:11;2.70;99.90
8595;DHT22;4335;48.860;9.198;2023-02-13T01:00:38;2.70;99.90
8595;DHT22;4335;48.860;9.198;2023-02-13T01:03:09;2.70;99.90
8595;DHT22;4335;48.860;9.198;2023-02-13T01:05:39;2.70;99.90
8595;DHT22;4335;48.860;9.198;2023-02-13T01:08:16;2.70;99.90
8595;DHT22;4335;48.860;9.198;2023-02-13T01:10:45;2.60;99.90
8595;DHT22;4335;48.860;9.198;2023-02-13T01:13:12;2.60;99.90
8595;DHT22;4335;48.860;9.198;2023-02-13T01:15:39;2.60;99.90
8595;DHT22;4335;48.860;9.198;2023-02-13T01:18:06;2.50;99.90
8595;DHT22;4335;48.860;9.198;2023-02-13T01:20:34;2.60;99.90
8595;DHT22;4335;48.860;9.198;2023-02-13T01:23:00;2.60;99.90
8595;DHT22;4335;48.860;9.198;2023-02-13T01:25:27;2.50;99.90
8595;DHT22;4335;48.860;9.198;2023-02-13T01:27:56;2.50;99.90
8595;DHT22;4335;48.860;9.198;2023-02-13T01:30:23;2.50;99.90
8595;DHT22;4335;48.860;9.198;2023-02-13T01:32:50;2.50;99.90
8595;DHT22;4335;48.860;9.198;2023-02-13T01:35:16;2.40;99.90
8595;DHT22;4335;48.860;9.198;2023-02-13T01:37:44;2.40;99.90
8595;DHT22;4335;48.860;9.198;2023-02-13T01:40:14;2.40;99.90
8595;DHT22;4335;48.860;9.198;2023-02-13T01:42:45;2.40;99.90
8595;DHT22;4335;48.860;9.198;2023-02-13T01:45:25;2.30;99.90
8595;DHT22;4335;48.860;9.198;2023-02-13T01:47:54;2.30;99.90
8595;DHT22;4335;48.860;9.198;2023-02-13T01:50:26;2.30;99.90
8595;DHT22;4335;48.860;9.198;2023-02-13T01:52:59;2.30;99.90
8595;DHT22;4335;48.860;9.198;2023-02-13T01:55:27;2.40;99.90
8595;DHT22;4335;48.860;9.198;2023-02-13T01:57:58;2.30;99.90
8595;DHT22;4335;48.860;9.198;2023-02-13T02:00:26;2.30;99.90
8595;DHT22;4335;48.860;9.198;2023-02-13T02:02:56;2.30;99.90
8595;DHT22;4335;48.860;9.198;2023-02-13T02:05:30;2.30;99.90
8595;DHT22;4335;48.860;9.198;2023-02-13T02:07:59;2.20;99.90
8595;DHT22;4335;48.860;9.198;2023-02-13T02:10:27;2.20;99.90
8595;DHT22;4335;48.860;9.198;2023-02-13T02:13:02;2.20;99.90
8595;DHT22;4335;48.860;9.198;2023-02-13T02:15:30;2.20;99.90
8595;DHT22;4335;48.860;9.198;2023-02-13T02:18:00;2.20;99.90
8595;DHT22;4335;48.860;9.198;2023-02-13T02:21:04;2.10;99.90
8595;DHT22;4335;48.860;9.198;2023-02-13T02:23:52;2.10;99.90
8595;DHT22;4335;48.860;9.198;2023-02-13T02:26:52;2.10;99.90
8595;DHT22;4335;48.860;9.198;2023-02-13T02:32:41;2.10;99.90
8595;DHT22;4335;48.860;9.198;2023-02-13T02:35:18;2.20;99.90
8595;DHT22;4335;48.860;9.198;2023-02-13T02:38:07;2.20;99.90
8595;DHT22;4335;48.860;9.198;2023-02-13T02:40:43;2.20;99.90
8595;DHT22;4335;48.860;9.198;2023-02-13T02:43:22;2.20;99.90
8595;DHT22;4335;48.860;9.198;2023-02-13T02:45:55;2.20;99.90
8595;DHT22;4335;48.860;9.198;2023-02-13T02:48:31;2.30;99.90
8595;DHT22;4335;48.860;9.198;2023-02-13T02:51:26;2.30;99.90
8595;DHT22;4335;48.860;9.198;2023-02-13T02:54:04;2.30;99.90
8595;DHT22;4335;48.860;9.198;2023-02-13T02:56:58;2.30;99.90
8595;DHT22;4335;48.860;9.198;2023-02-13T02:59:27;2.30;99.90
8595;DHT22;4335;48.860;9.198;2023-02-13T03:02:14;2.20;99.90
8595;DHT22;4335;48.860;9.198;2023-02-13T03:05:03;2.20;99.90
8595;DHT22;4335;48.860;9.198;2023-02-13T03:07:55;2.20;99.90
8595;DHT22;4335;48.860;9.198;2023-02-13T03:10:26;2.20;99.90
8595;DHT22;4335;48.860;9.198;2023-02-13T03:13:15;2.30;99.90
8595;DHT22;4335;48.860;9.198;2023-02-13T03:15:48;2.30;99.90
8595;DHT22;4335;48.860;9.198;2023-02-13T03:18:43;2.30;99.90
8595;DHT22;4335;48.860;9.198;2023-02-13T03:21:37;2.20;99.90
8595;DHT22;4335;48.860;9.198;2023-02-13T03:24:31;2.20;99.90
8595;DHT22;4335;48.860;9.198;2023-02-13T03:27:03;2.20;99.90
8595;DHT22;4335;48.860;9.198;2023-02-13T03:29:42;2.10;99.90
8595;DHT22;4335;48.860;9.198;2023-02-13T03:32:35;2.10;99.90
8595;DHT22;4335;48.860;9.198;2023-02-13T03:35:18;2.10;99.90
8595;DHT22;4335;48.860;9.198;2023-02-13T03:38:12;2.10;99.90
8595;DHT22;4335;48.860;9.198;2023-02-13T03:40:46;2.00;99.90
8595;DHT22;4335;48.860;9.198;2023-02-13T03:43:31;2.00;99.90
8595;DHT22;4335;48.860;9.198;2023-02-13T03:46:01;2.00;99.90
8595;DHT22;4335;48.860;9.198;2023-02-13T03:48:31;1.90;99.90
8595;DHT22;4335;48.860;9.198;2023-02-13T03:51:22;1.90;99.90
8595;DHT22;4335;48.860;9.198;2023-02-13T03:53:54;1.90;99.90
8595;DHT22;4335;48.860;9.198;2023-02-13T03:56:22;1.80;99.90
8595;DHT22;4335;48.860;9.198;2023-02-13T03:59:11;1.80;99.90
8595;DHT22;4335;48.860;9.198;2023-02-13T04:01:45;1.80;99.90
8595;DHT22;4335;48.860;9.198;2023-02-13T04:04:21;1.70;99.90
8595;DHT22;4335;48.860;9.198;2023-02-13T04:06:58;1.70;99.90
8595;DHT22;4335;48.860;9.198;2023-02-13T04:09:27;1.70;99.90
8595;DHT22;4335;48.860;9.198;2023-02-13T04:12:01;1.70;99.90
8595;DHT22;4335;48.860;9.198;2023-02-13T04:14:37;1.70;99.90
8595;DHT22;4335;48.860;9.198;2023-02-13T04:17:07;1.70;99.90
8595;DHT22;4335;48.860;9.198;2023-02-13T04:19:35;1.70;99.90
8595;DHT22;4335;48.860;9.198;2023-02-13T04:22:02;1.60;99.90
8595;DHT22;4335;48.860;9.198;2023-02-13T04:24:30;1.70;99.90
8595;DHT22;4335;48.860;9.198;2023-02-13T04:26:57;1.70;99.90
8595;DHT22;4335;48.860;9.198;2023-02-13T04:29:25;1.70;99.90
8595;DHT22;4335;48.860;9.198;2023-02-13T04:31:55;1.60;99.90
8595;DHT22;4335;48.860;9.198;2023-02-13T04:34:22;1.70;99.90
8595;DHT22;4335;48.860;9.198;2023-02-13T04:36:54;1.70;99.90
8595;DHT22;4335;48.860;9.198;2023-02-13T04:39:24;1.70;99.90
8595;DHT22;4335;48.860;9.198;2023-02-13T04:41:52;1.60;99.90
8595;DHT22;4335;48.860;9.198;2023-02-13T04:44:19;1.60;99.90
8595;DHT22;4335;48.860;9.198;2023-02-13T04:46:48;1.60;99.90
8595;DHT22;4335;48.860;9.198;2023-02-13T04:49:15;1.60;99.90
8595;DHT22;4335;48.860;9.198;2023-02-13T04:51:43;1.60;99.90
8595;DHT22;4335;48.860;9.198;2023-02-13T04:54:10;1.60;99.90
8595;DHT22;4335;48.860;9.198;2023-02-13T04:56:39;1.60;99.90
8595;DHT22;4335;48.860;9.198;2023-02-13T04:59:07;1.50;99.90
8595;DHT22;4335;48.860;9.198;2023-02-13T05:01:39;1.50;99.90
8595;DHT22;4335;48.860;9.198;2023-02-13T05:04:09;1.50;99.90
8595;DHT22;4335;48.860;9.198;2023-02-13T05:06:41;1.50;99.90
8595;DHT22;4335;48.860;9.198;2023-02-13T05:09:17;1.50;99.90
8595;DHT22;4335;48.860;9.198;2023-02-13T05:11:50;1.40;99.90
8595;DHT22;4335;48.860;9.198;2023-02-13T05:14:17;1.40;99.90
8595;DHT22;4335;48.860;9.198;2023-02-13T05:16:44;1.40;99.90
8595;DHT22;4335;48.860;9.198;2023-02-13T05:19:11;1.30;99.90
8595;DHT22;4335;48.860;9.198;2023-02-13T05:21:38;1.20;99.90
8595;DHT22;4335;48.860;9.198;2023-02-13T05:24:23;1.20;99.90
8595;DHT22;4335;48.860;9.198;2023-02-13T05:26:51;1.20;99.90
8595;DHT22;4335;48.860;9.198;2023-02-13T05:29:19;1.10;99.90
8595;DHT22;4335;48.860;9.198;2023-02-13T05:31:48;1.10;99.90
8595;DHT22;4335;48.860;9.198;2023-02-13T05:34:15;1.00;99.90
8595;DHT22;4335;48.860;9.198;2023-02-13T05:36:45;1.00;99.90
8595;DHT22;4335;48.860;9.198;2023-02-13T05:39:12;1.00;99.90
8595;DHT22;4335;48.860;9.198;2023-02-13T05:41:40;1.00;99.90
8595;DHT22;4335;48.860;9.198;2023-02-13T05:44:07;1.00;99.90
8595;DHT22;4335;48.860;9.198;2023-02-13T05:46:38;1.00;99.90
8595;DHT22;4335;48.860;9.198;2023-02-13T05:49:06;1.00;99.90
8595;DHT22;4335;48.860;9.198;2023-02-13T05:51:33;1.00;99.90
8595;DHT22;4335;48.860;9.198;2023-02-13T05:54:03;1.00;99.90
8595;DHT22;4335;48.860;9.198;2023-02-13T05:56:30;1.00;99.90
8595;DHT22;4335;48.860;9.198;2023-02-13T05:59:03;0.90;99.90
8595;DHT22;4335;48.860;9.198;2023-02-13T06:01:29;0.90;99.90
8595;DHT22;4335;48.860;9.198;2023-02-13T06:04:00;0.90;99.90
8595;DHT22;4335;48.860;9.198;2023-02-13T06:06:27;0.90;99.90
8595;DHT22;4335;48.860;9.198;2023-02-13T06:08:53;0.80;99.90
8595;DHT22;4335;48.860;9.198;2023-02-13T06:11:23;0.80;99.90
8595;DHT22;4335;48.860;9.198;2023-02-13T06:13:50;0.80;99.90
8595;DHT22;4335;48.860;9.198;2023-02-13T06:16:16;0.80;99.90
8595;DHT22;4335;48.860;9.198;2023-02-13T06:18:43;0.80;99.90
8595;DHT22;4335;48.860;9.198;2023-02-13T06:21:17;0.80;99.90
8595;DHT22;4335;48.860;9.198;2023-02-13T06:23:43;0.80;99.90
8595;DHT22;4335;48.860;9.198;2023-02-13T06:26:10;0.80;99.90
8595;DHT22;4335;48.860;9.198;2023-02-13T06:28:43;0.80;99.90
8595;DHT22;4335;48.860;9.198;2023-02-13T06:31:10;0.80;99.90
8595;DHT22;4335;48.860;9.198;2023-02-13T06:33:36;0.80;99.90
8595;DHT22;4335;48.860;9.198;2023-02-13T06:36:03;0.80;99.90
8595;DHT22;4335;48.860;9.198;2023-02-13T06:38:31;0.80;99.90
8595;DHT22;4335;48.860;9.198;2023-02-13T06:40:59;0.60;99.90
8595;DHT22;4335;48.860;9.198;2023-02-13T06:43:29;0.80;99.90
8595;DHT22;4335;48.860;9.198;2023-02-13T06:45:56;0.80;99.90
8595;DHT22;4335;48.860;9.198;2023-02-13T06:48:22;0.80;99.90
8595;DHT22;4335;48.860;9.198;2023-02-13T06:50:49;0.80;99.90
8595;DHT22;4335;48.860;9.198;2023-02-13T06:53:17;0.80;99.90
8595;DHT22;4335;48.860;9.198;2023-02-13T06:55:52;0.90;99.90
8595;DHT22;4335;48.860;9.198;2023-02-13T06:58:20;0.90;99.90
8595;DHT22;4335;48.860;9.198;2023-02-13T07:00:52;0.90;99.90
8595;DHT22;4335;48.860;9.198;2023-02-13T07:03:19;1.00;99.90
8595;DHT22;4335;48.860;9.198;2023-02-13T07:05:46;1.00;99.90
8595;DHT22;4335;48.860;9.198;2023-02-13T07:08:17;1.10;99.90
8595;DHT22;4335;48.860;9.198;2023-02-13T07:10:47;1.10;99.90
8595;DHT22;4335;48.860;9.198;2023-02-13T07:13:14;1.10;99.90
8595;DHT22;4335;48.860;9.198;2023-02-13T07:15:40;1.10;99.90
8595;DHT22;4335;48.860;9.198;2023-02-13T07:18:07;1.10;99.90
8595;DHT22;4335;48.860;9.198;2023-02-13T07:20:34;1.10;99.90
8595;DHT22;4335;48.860;9.198;2023-02-13T07:23:03;1.20;99.90
8595;DHT22;4335;48.860;9.198;2023-02-13T07:25:33;1.20;99.90
8595;DHT22;4335;48.860;9.198;2023-02-13T07:28:04;1.30;99.90
8595;DHT22;4335;48.860;9.198;2023-02-13T07:30:32;1.30;99.90
8595;DHT22;4335;48.860;9.198;2023-02-13T07:33:00;1.30;99.90
8595;DHT22;4335;48.860;9.198;2023-02-13T07:35:27;1.30;99.90
8595;DHT22;4335;48.860;9.198;2023-02-13T07:37:54;1.30;99.90
8595;DHT22;4335;48.860;9.198;2023-02-13T07:40:23;1.30;99.90
8595;DHT22;4335;48.860;9.198;2023-02-13T07:42:50;1.30;99.90
8595;DHT22;4335;48.860;9.198;2023-02-13T07:45:17;1.40;99.90
8595;DHT22;4335;48.860;9.198;2023-02-13T07:47:44;1.40;99.90
8595;DHT22;4335;48.860;9.198;2023-02-13T07:50:11;1.40;99.90
8595;DHT22;4335;48.860;9.198;2023-02-13T07:52:38;1.50;99.90
8595;DHT22;4335;48.860;9.198;2023-02-13T07:55:06;1.50;99.90
8595;DHT22;4335;48.860;9.198;2023-02-13T07:57:33;1.60;99.90
8595;DHT22;4335;48.860;9.198;2023-02-13T08:00:03;1.60;99.90
8595;DHT22;4335;48.860;9.198;2023-02-13T08:02:30;1.70;99.90
8595;DHT22;4335;48.860;9.198;2023-02-13T08:04:57;1.70;99.90
8595;DHT22;4335;48.860;9.198;2023-02-13T08:07:24;1.80;99.90
8595;DHT22;4335;48.860;9.198;2023-02-13T08:09:50;1.80;99.90
8595;DHT22;4335;48.860;9.198;2023-02-13T08:12:35;1.80;99.90
8595;DHT22;4335;48.860;9.198;2023-02-13T08:15:10;1.90;99.90
8595;DHT22;4335;48.860;9.198;2023-02-13T08:17:43;1.90;99.90
8595;DHT22;4335;48.860;9.198;2023-02-13T08:20:10;2.00;99.90
8595;DHT22;4335;48.860;9.198;2023-02-13T08:22:39;2.00;99.90
8595;DHT22;4335;48.860;9.198;2023-02-13T08:25:07;2.10;99.90
8595;DHT22;4335;48.860;9.198;2023-02-13T08:27:34;2.10;99.90
8595;DHT22;4335;48.860;9.198;2023-02-13T08:30:01;2.20;99.90
8595;DHT22;4335;48.860;9.198;2023-02-13T08:32:29;2.20;99.90
8595;DHT22;4335;48.860;9.198;2023-02-13T08:34:57;2.20;99.90
8595;DHT22;4335;48.860;9.198;2023-02-13T08:37:24;2.30;99.90
8595;DHT22;4335;48.860;9.198;2023-02-13T08:39:50;2.30;99.90
8595;DHT22;4335;48.860;9.198;2023-02-13T08:42:17;2.40;99.90
8595;DHT22;4335;48.860;9.198;2023-02-13T08:44:44;2.50;99.90
8595;DHT22;4335;48.860;9.198;2023-02-13T08:47:13;2.50;99.90
8595;DHT22;4335;48.860;9.198;2023-02-13T08:49:40;2.50;99.90
8595;DHT22;4335;48.860;9.198;2023-02-13T08:52:08;2.70;99.90
8595;DHT22;4335;48.860;9.198;2023-02-13T08:54:38;2.70;99.90
8595;DHT22;4335;48.860;9.198;2023-02-13T08:57:07;2.70;99.90
8595;DHT22;4335;48.860;9.198;2023-02-13T08:59:34;2.70;99.90
8595;DHT22;4335;48.860;9.198;2023-02-13T09:02:01;2.80;99.90
8595;DHT22;4335;48.860;9.198;2023-02-13T09:04:33;2.80;99.90
8595;DHT22;4335;48.860;9.198;2023-02-13T09:07:01;2.90;99.90
8595;DHT22;4335;48.860;9.198;2023-02-13T09:09:31;2.90;99.90
8595;DHT22;4335;48.860;9.198;2023-02-13T09:11:58;3.00;99.90
8595;DHT22;4335;48.860;9.198;2023-02-13T09:14:31;3.10;99.90
8595;DHT22;4335;48.860;9.198;2023-02-13T09:16:58;3.20;99.90
8595;DHT22;4335;48.860;9.198;2023-02-13T09:19:28;3.20;99.90
8595;DHT22;4335;48.860;9.198;2023-02-13T09:21:54;3.20;99.90
8595;DHT22;4335;48.860;9.198;2023-02-13T09:24:21;3.30;99.90
8595;DHT22;4335;48.860;9.198;2023-02-13T09:26:48;3.30;99.90
8595;DHT22;4335;48.860;9.198;2023-02-13T09:29:21;3.50;99.90
8595;DHT22;4335;48.860;9.198;2023-02-13T09:31:48;3.60;99.90
8595;DHT22;4335;48.860;9.198;2023-02-13T09:34:18;3.70;99.90
8595;DHT22;4335;48.860;9.198;2023-02-13T09:36:44;3.70;99.90
8595;DHT22;4335;48.860;9.198;2023-02-13T09:39:11;3.80;99.90
8595;DHT22;4335;48.860;9.198;2023-02-13T09:41:39;3.90;99.90
8595;DHT22;4335;48.860;9.198;2023-02-13T09:44:13;4.00;99.90
8595;DHT22;4335;48.860;9.198;2023-02-13T09:46:59;4.10;99.90
8595;DHT22;4335;48.860;9.198;2023-02-13T09:49:31;4.20;99.90
8595;DHT22;4335;48.860;9.198;2023-02-13T09:51:59;4.30;99.90
8595;DHT22;4335;48.860;9.198;2023-02-13T09:54:29;4.30;99.90
8595;DHT22;4335;48.860;9.198;2023-02-13T09:57:02;4.30;99.90
8595;DHT22;4335;48.860;9.198;2023-02-13T09:59:41;4.40;99.90
8595;DHT22;4335;48.860;9.198;2023-02-13T10:02:22;4.50;99.90
8595;DHT22;4335;48.860;9.198;2023-02-13T10:05:00;4.60;99.90
8595;DHT22;4335;48.860;9.198;2023-02-13T10:07:35;4.60;99.90
8595;DHT22;4335;48.860;9.198;2023-02-13T10:10:09;4.70;99.90
8595;DHT22;4335;48.860;9.198;2023-02-13T10:12:53;4.70;99.90
8595;DHT22;4335;48.860;9.198;2023-02-13T10:15:30;4.80;99.90
8595;DHT22;4335;48.860;9.198;2023-02-13T10:18:04;4.80;99.90
8595;DHT22;4335;48.860;9.198;2023-02-13T10:20:34;4.90;99.90
8595;DHT22;4335;48.860;9.198;2023-02-13T10:23:13;5.00;99.90
8595;DHT22;4335;48.860;9.198;2023-02-13T10:25:45;5.10;99.90
8595;DHT22;4335;48.860;9.198;2023-02-13T10:28:18;5.70;99.90
8595;DHT22;4335;48.860;9.198;2023-02-13T10:30:56;7.80;99.90
8595;DHT22;4335;48.860;9.198;2023-02-13T10:33:28;10.30;99.90
8595;DHT22;4335;48.860;9.198;2023-02-13T10:36:00;12.30;99.90
8595;DHT22;4335;48.860;9.198;2023-02-13T10:38:29;14.00;99.90
8595;DHT22;4335;48.860;9.198;2023-02-13T10:41:13;15.10;99.90
8595;DHT22;4335;48.860;9.198;2023-02-13T10:43:55;15.90;99.90
8595;DHT22;4335;48.860;9.198;2023-02-13T10:46:32;16.30;97.90
8595;DHT22;4335;48.860;9.198;2023-02-13T10:49:30;16.30;97.60
8595;DHT22;4335;48.860;9.198;2023-02-13T10:52:12;16.50;97.30
8595;DHT22;4335;48.860;9.198;2023-02-13T10:54:56;17.20;96.50
8595;DHT22;4335;48.860;9.198;2023-02-13T10:57:35;18.70;93.30
8595;DHT22;4335;48.860;9.198;2023-02-13T11:00:09;20.30;87.00
8595;DHT22;4335;48.860;9.198;2023-02-13T11:02:43;20.60;79.70
8595;DHT22;4335;48.860;9.198;2023-02-13T11:05:16;21.70;76.20
8595;DHT22;4335;48.860;9.198;2023-02-13T11:07:46;21.50;70.30
8595;DHT22;4335;48.860;9.198;2023-02-13T11:10:18;20.40;70.50
8595;DHT22;4335;48.860;9.198;2023-02-13T11:12:49;18.70;72.20
8595;DHT22;4335;48.860;9.198;2023-02-13T11:15:25;16.90;76.80
8595;DHT22;4335;48.860;9.198;2023-02-13T11:17:54;15.00;85.70
8595;DHT22;4335;48.860;9.198;2023-02-13T11:20:33;13.40;92.30
8595;DHT22;4335;48.860;9.198;2023-02-13T11:23:25;12.40;96.90
8595;DHT22;4335;48.860;9.198;2023-02-13T11:25:59;11.10;99.90
8595;DHT22;4335;48.860;9.198;2023-02-13T11:28:28;10.40;99.90
8595;DHT22;4335;48.860;9.198;2023-02-13T11:31:08;10.00;99.90
8595;DHT22;4335;48.860;9.198;2023-02-13T11:33:36;9.60;99.90
8595;DHT22;4335;48.860;9.198;2023-02-13T11:36:06;9.20;99.90
8595;DHT22;4335;48.860;9.198;2023-02-13T11:38:33;8.90;99.90
8595;DHT22;4335;48.860;9.198;2023-02-13T11:41:06;8.60;99.90
8595;DHT22;4335;48.860;9.198;2023-02-13T11:43:43;8.50;99.90
8595;DHT22;4335;48.860;9.198;2023-02-13T11:46:18;8.30;99.90
8595;DHT22;4335;48.860;9.198;2023-02-13T11:48:57;8.00;99.90
8595;DHT22;4335;48.860;9.198;2023-02-13T11:51:38;8.00;99.90
8595;DHT22;4335;48.860;9.198;2023-02-13T11:54:06;7.80;99.90
8595;DHT22;4335;48.860;9.198;2023-02-13T11:56:49;7.60;99.90
8595;DHT22;4335;48.860;9.198;2023-02-13T11:59:24;7.60;99.90
8595;DHT22;4335;48.860;9.198;2023-02-13T12:02:14;7.50;99.90
8595;DHT22;4335;48.860;9.198;2023-02-13T12:04:42;7.40;99.90
8595;DHT22;4335;48.860;9.198;2023-02-13T12:07:15;7.40;99.90
8595;DHT22;4335;48.860;9.198;2023-02-13T12:09:44;7.40;99.90
8595;DHT22;4335;48.860;9.198;2023-02-13T12:12:20;7.30;99.90
8595;DHT22;4335;48.860;9.198;2023-02-13T12:14:48;7.30;99.90
8595;DHT22;4335;48.860;9.198;2023-02-13T12:17:22;7.30;99.90
8595;DHT22;4335;48.860;9.198;2023-02-13T12:19:53;7.30;99.90
8595;DHT22;4335;48.860;9.198;2023-02-13T12:22:31;7.30;99.90
8595;DHT22;4335;48.860;9.198;2023-02-13T12:25:29;7.30;99.90
8595;DHT22;4335;48.860;9.198;2023-02-13T12:28:11;7.40;99.90
8595;DHT22;4335;48.860;9.198;2023-02-13T12:34:25;7.50;99.90
8595;DHT22;4335;48.860;9.198;2023-02-13T12:37:15;7.50;99.90
8595;DHT22;4335;48.860;9.198;2023-02-13T12:39:57;7.50;99.90
8595;DHT22;4335;48.860;9.198;2023-02-13T12:42:37;7.60;99.90
8595;DHT22;4335;48.860;9.198;2023-02-13T12:45:22;7.60;99.90
8595;DHT22;4335;48.860;9.198;2023-02-13T12:48:15;7.60;99.90
8595;DHT22;4335;48.860;9.198;2023-02-13T12:50:53;7.60;99.90
8595;DHT22;4335;48.860;9.198;2023-02-13T12:53:42;7.70;99.90
8595;DHT22;4335;48.860;9.198;2023-02-13T12:56:30;7.70;99.90
8595;DHT22;4335;48.860;9.198;2023-02-13T12:59:08;7.80;99.90
8595;DHT22;4335;48.860;9.198;2023-02-13T13:04:46;7.70;99.90
8595;DHT22;4335;48.860;9.198;2023-02-13T13:07:37;7.80;99.90
8595;DHT22;4335;48.860;9.198;2023-02-13T13:10:30;7.90;99.90
8595;DHT22;4335;48.860;9.198;2023-02-13T13:13:07;7.90;99.90
8595;DHT22;4335;48.860;9.198;2023-02-13T13:15:41;7.90;99.90
8595;DHT22;4335;48.860;9.198;2023-02-13T13:18:22;8.00;99.90
8595;DHT22;4335;48.860;9.198;2023-02-13T13:21:08;8.00;99.90
8595;DHT22;4335;48.860;9.198;2023-02-13T13:23:45;8.00;99.90
8595;DHT22;4335;48.860;9.198;2023-02-13T13:26:20;8.00;99.90
8595;DHT22;4335;48.860;9.198;2023-02-13T13:28:54;8.00;99.90
8595;DHT22;4335;48.860;9.198;2023-02-13T13:31:23;8.00;99.90
8595;DHT22;4335;48.860;9.198;2023-02-13T13:33:53;8.10;99.90
8595;DHT22;4335;48.860;9.198;2023-02-13T13:36:33;8.20;99.90
8595;DHT22;4335;48.860;9.198;2023-02-13T13:39:05;8.20;99.90
8595;DHT22;4335;48.860;9.198;2023-02-13T13:41:39;8.30;99.90
8595;DHT22;4335;48.860;9.198;2023-02-13T13:44:23;8.30;99.90
8595;DHT22;4335;48.860;9.198;2023-02-13T13:46:57;8.30;99.90
8595;DHT22;4335;48.860;9.198;2023-02-13T13:49:33;8.40;99.90
8595;DHT22;4335;48.860;9.198;2023-02-13T13:52:24;8.50;99.90
8595;DHT22;4335;48.860;9.198;2023-02-13T13:54:52;8.60;99.90
8595;DHT22;4335;48.860;9.198;2023-02-13T13:57:21;8.70;99.90
8595;DHT22;4335;48.860;9.198;2023-02-13T14:00:24;8.70;99.90
8595;DHT22;4335;48.860;9.198;2023-02-13T14:03:20;8.70;99.90
8595;DHT22;4335;48.860;9.198;2023-02-13T14:05:59;8.70;99.90
8595;DHT22;4335;48.860;9.198;2023-02-13T14:11:42;8.70;99.90
8595;DHT22;4335;48.860;9.198;2023-02-13T14:20:35;9.00;99.90
8595;DHT22;4335;48.860;9.198;2023-02-13T14:23:22;8.90;99.90
8595;DHT22;4335;48.860;9.198;2023-02-13T14:26:24;9.10;99.90
8595;DHT22;4335;48.860;9.198;2023-02-13T14:28:59;9.00;99.90
8595;DHT22;4335;48.860;9.198;2023-02-13T14:31:30;9.00;99.90
8595;DHT22;4335;48.860;9.198;2023-02-13T14:33:59;9.10;99.90
8595;DHT22;4335;48.860;9.198;2023-02-13T14:36:31;9.10;99.90
8595;DHT22;4335;48.860;9.198;2023-02-13T14:39:02;9.00;99.90
8595;DHT22;4335;48.860;9.198;2023-02-13T14:41:57;9.10;99.90
8595;DHT22;4335;48.860;9.198;2023-02-13T14:44:28;9.00;99.90
8595;DHT22;4335;48.860;9.198;2023-02-13T14:46:57;9.00;99.90
8595;DHT22;4335;48.860;9.198;2023-02-13T14:49:27;9.10;99.90
8595;DHT22;4335;48.860;9.198;2023-02-13T14:51:57;9.10;99.90
8595;DHT22;4335;48.860;9.198;2023-02-13T14:54:28;9.10;99.90
8595;DHT22;4335;48.860;9.198;2023-02-13T14:57:03;9.10;99.90
8595;DHT22;4335;48.860;9.198;2023-02-13T14:59:33;9.10;99.90
8595;DHT22;4335;48.860;9.198;2023-02-13T15:02:14;9.10;99.90
8595;DHT22;4335;48.860;9.198;2023-02-13T15:04:43;9.10;99.90
8595;DHT22;4335;48.860;9.198;2023-02-13T15:07:14;9.10;99.90
8595;DHT22;4335;48.860;9.198;2023-02-13T15:09:47;9.10;99.90
8595;DHT22;4335;48.860;9.198;2023-02-13T15:12:30;9.10;99.90
8595;DHT22;4335;48.860;9.198;2023-02-13T15:14:58;9.10;99.90
8595;DHT22;4335;48.860;9.198;2023-02-13T15:17:28;9.10;99.90
8595;DHT22;4335;48.860;9.198;2023-02-13T15:20:07;9.10;99.90
8595;DHT22;4335;48.860;9.198;2023-02-13T15:22:45;9.10;99.90
8595;DHT22;4335;48.860;9.198;2023-02-13T15:25:21;9.00;99.90
8595;DHT22;4335;48.860;9.198;2023-02-13T15:27:55;8.90;99.90
8595;DHT22;4335;48.860;9.198;2023-02-13T15:30:24;9.00;99.90
8595;DHT22;4335;48.860;9.198;2023-02-13T15:32:56;8.90;99.90
8595;DHT22;4335;48.860;9.198;2023-02-13T15:35:25;8.90;99.90
8595;DHT22;4335;48.860;9.198;2023-02-13T15:37:54;8.90;99.90
8595;DHT22;4335;48.860;9.198;2023-02-13T15:40:23;8.80;99.90
8595;DHT22;4335;48.860;9.198;2023-02-13T15:42:54;8.80;99.90
8595;DHT22;4335;48.860;9.198;2023-02-13T15:45:23;8.80;99.90
8595;DHT22;4335;48.860;9.198;2023-02-13T15:47:51;8.80;99.90
8595;DHT22;4335;48.860;9.198;2023-02-13T15:50:28;8.70;99.90
8595;DHT22;4335;48.860;9.198;2023-02-13T15:52:56;8.70;99.90
8595;DHT22;4335;48.860;9.198;2023-02-13T15:55:25;8.70;99.90
8595;DHT22;4335;48.860;9.198;2023-02-13T15:58:01;8.60;99.90
8595;DHT22;4335;48.860;9.198;2023-02-13T16:00:31;8.60;99.90
8595;DHT22;4335;48.860;9.198;2023-02-13T16:03:00;8.50;99.90
8595;DHT22;4335;48.860;9.198;2023-02-13T16:05:37;8.50;99.90
8595;DHT22;4335;48.860;9.198;2023-02-13T16:08:27;8.50;99.90
8595;DHT22;4335;48.860;9.198;2023-02-13T16:11:18;8.40;99.90
8595;DHT22;4335;48.860;9.198;2023-02-13T16:14:00;8.30;99.90
8595;DHT22;4335;48.860;9.198;2023-02-13T16:16:31;8.30;99.90
8595;DHT22;4335;48.860;9.198;2023-02-13T16:18:59;8.20;99.90
8595;DHT22;4335;48.860;9.198;2023-02-13T16:21:27;8.20;99.90
8595;DHT22;4335;48.860;9.198;2023-02-13T16:24:05;8.10;99.90
8595;DHT22;4335;48.860;9.198;2023-02-13T16:26:34;8.00;99.90
8595;DHT22;4335;48.860;9.198;2023-02-13T16:29:08;7.90;99.90
8595;DHT22;4335;48.860;9.198;2023-02-13T16:31:38;7.80;99.90
8595;DHT22;4335;48.860;9.198;2023-02-13T16:34:13;7.70;99.90
8595;DHT22;4335;48.860;9.198;2023-02-13T16:36:43;7.60;99.90
8595;DHT22;4335;48.860;9.198;2023-02-13T16:39:19;7.50;99.90
8595;DHT22;4335;48.860;9.198;2023-02-13T16:41:49;7.40;99.90
8595;DHT22;4335;48.860;9.198;2023-02-13T16:44:34;7.20;99.90
8595;DHT22;4335;48.860;9.198;2023-02-13T16:47:02;7.10;99.90
8595;DHT22;4335;48.860;9.198;2023-02-13T16:49:31;7.00;99.90
8595;DHT22;4335;48.860;9.198;2023-02-13T16:52:10;6.90;99.90
8595;DHT22;4335;48.860;9.198;2023-02-13T16:54:50;6.80;99.90
8595;DHT22;4335;48.860;9.198;2023-02-13T16:57:19;6.80;99.90
8595;DHT22;4335;48.860;9.198;2023-02-13T16:59:54;6.70;99.90
8595;DHT22;4335;48.860;9.198;2023-02-13T17:02:23;6.70;99.90
8595;DHT22;4335;48.860;9.198;2023-02-13T17:04:53;6.70;99.90
8595;DHT22;4335;48.860;9.198;2023-02-13T17:07:25;6.60;99.90
8595;DHT22;4335;48.860;9.198;2023-02-13T17:09:55;6.50;99.90
8595;DHT22;4335;48.860;9.198;2023-02-13T17:12:23;6.40;99.90
8595;DHT22;4335;48.860;9.198;2023-02-13T17:14:50;6.40;99.90